sensor_id;sensor_type;location;lat;lon;timestamp;temperature;humidity
30983;DHT22;17660;52.578;13.288;2023-05-19T00:00:49;12.90;76.00
30983;DHT22;17660;52.578;13.288;2023-05-19T00:03:16;12.80;75.70
30983;DHT22;17660;52.578;13.288;2023-05-19T00:05:47;12.80;76.30
30983;DHT22;17660;52.578;13.288;2023-05-19T00:08:16;12.80;75.70
30983;DHT22;17660;52.578;13.288;2023-05-19T00:10:44;12.90;75.50
30983;DHT22;17660;52.578;13.288;2023-05-19T00:13:10;12.90;75.20
30983;DHT22;17660;52.578;13.288;2023-05-19T00:15:37;12.90;75.20
30983;DHT22;17660;52.578;13.288;2023-05-19T00:18:04;12.80;76.20
30983;DHT22;17660;52.578;13.288;2023-05-19T00:20:31;12.90;75.60
30983;DHT22;17660;52.578;13.288;2023-05-19T00:22:58;12.70;75.00
30983;DHT22;17660;52.578;13.288;2023-05-19T00:25:25;12.80;75.10
30983;DHT22;17660;52.578;13.288;2023-05-19T00:27:52;12.60;74.80
30983;DHT22;17660;52.578;13.288;2023-05-19T00:30:19;12.70;75.40
30983;DHT22;17660;52.578;13.288;2023-05-19T00:32:48;12.70;75.30
30983;DHT22;17660;52.578;13.288;2023-05-19T00:35:15;12.70;75.10
30983;DHT22;17660;52.578;13.288;2023-05-19T00:37:41;12.50;76.40
30983;DHT22;17660;52.578;13.288;2023-05-19T00:40:08;12.60;75.20
30983;DHT22;17660;52.578;13.288;2023-05-19T00:42:35;12.60;74.90
30983;DHT22;17660;52.578;13.288;2023-05-19T00:45:02;12.70;75.00
30983;DHT22;17660;52.578;13.288;2023-05-19T00:47:29;12.70;75.20
30983;DHT22;17660;52.578;13.288;2023-05-19T00:49:55;12.80;74.40
30983;DHT22;17660;52.578;13.288;2023-05-19T00:52:22;12.70;74.50
30983;DHT22;17660;52.578;13.288;2023-05-19T00:54:49;12.80;75.10
30983;DHT22;17660;52.578;13.288;2023-05-19T00:57:16;12.80;74.60
30983;DHT22;17660;52.578;13.288;2023-05-19T00:59:43;12.80;74.60
30983;DHT22;17660;52.578;13.288;2023-05-19T01:02:10;12.80;74.20
30983;DHT22;17660;52.578;13.288;2023-05-19T01:04:37;12.90;74.10
30983;DHT22;17660;52.578;13.288;2023-05-19T01:07:07;12.80;74.50
30983;DHT22;17660;52.578;13.288;2023-05-19T01:09:33;12.80;74.00
30983;DHT22;17660;52.578;13.288;2023-05-19T01:12:00;12.70;74.50
30983;DHT22;17660;52.578;13.288;2023-05-19T01:14:27;12.70;75.00
30983;DHT22;17660;52.578;13.288;2023-05-19T01:17:01;12.70;74.70
30983;DHT22;17660;52.578;13.288;2023-05-19T01:32:33;12.50;75.20
30983;DHT22;17660;52.578;13.288;2023-05-19T01:35:00;12.50;75.30
30983;DHT22;17660;52.578;13.288;2023-05-19T01:37:27;12.50;75.00
30983;DHT22;17660;52.578;13.288;2023-05-19T01:39:54;12.60;75.60
30983;DHT22;17660;52.578;13.288;2023-05-19T01:42:21;12.60;75.00
30983;DHT22;17660;52.578;13.288;2023-05-19T01:44:48;12.50;75.30
30983;DHT22;17660;52.578;13.288;2023-05-19T01:47:16;12.50;75.50
30983;DHT22;17660;52.578;13.288;2023-05-19T01:49:43;12.50;75.60
30983;DHT22;17660;52.578;13.288;2023-05-19T01:52:10;12.50;75.60
30983;DHT22;17660;52.578;13.288;2023-05-19T01:54:36;12.50;75.70
30983;DHT22;17660;52.578;13.288;2023-05-19T02:02:58;12.50;75.30
30983;DHT22;17660;52.578;13.288;2023-05-19T02:05:05;12.50;75.50
30983;DHT22;17660;52.578;13.288;2023-05-19T02:10:05;12.40;76.10
30983;DHT22;17660;52.578;13.288;2023-05-19T02:12:35;12.30;76.50
30983;DHT22;17660;52.578;13.288;2023-05-19T02:17:30;12.10;76.90
30983;DHT22;17660;52.578;13.288;2023-05-19T02:19:58;12.10;76.60
30983;DHT22;17660;52.578;13.288;2023-05-19T02:22:25;12.10;76.90
30983;DHT22;17660;52.578;13.288;2023-05-19T02:24:52;12.10;77.10
30983;DHT22;17660;52.578;13.288;2023-05-19T02:27:18;12.10;77.00
30983;DHT22;17660;52.578;13.288;2023-05-19T02:29:45;12.10;76.70
30983;DHT22;17660;52.578;13.288;2023-05-19T02:32:11;12.10;77.10
30983;DHT22;17660;52.578;13.288;2023-05-19T02:34:38;12.00;77.20
30983;DHT22;17660;52.578;13.288;2023-05-19T02:37:05;12.00;77.10
30983;DHT22;17660;52.578;13.288;2023-05-19T02:39:33;12.10;77.10
30983;DHT22;17660;52.578;13.288;2023-05-19T02:42:00;12.00;78.00
30983;DHT22;17660;52.578;13.288;2023-05-19T02:44:27;12.00;77.20
30983;DHT22;17660;52.578;13.288;2023-05-19T02:46:54;12.00;77.30
30983;DHT22;17660;52.578;13.288;2023-05-19T02:49:20;12.00;77.70
30983;DHT22;17660;52.578;13.288;2023-05-19T02:51:47;12.00;77.80
30983;DHT22;17660;52.578;13.288;2023-05-19T02:54:14;12.10;77.70
30983;DHT22;17660;52.578;13.288;2023-05-19T02:56:40;12.00;77.70
30983;DHT22;17660;52.578;13.288;2023-05-19T02:59:07;12.10;77.50
30983;DHT22;17660;52.578;13.288;2023-05-19T03:01:34;12.20;77.40
30983;DHT22;17660;52.578;13.288;2023-05-19T03:04:02;12.10;77.80
30983;DHT22;17660;52.578;13.288;2023-05-19T03:06:31;12.10;77.90
30983;DHT22;17660;52.578;13.288;2023-05-19T03:08:58;12.20;78.00
30983;DHT22;17660;52.578;13.288;2023-05-19T03:11:25;12.20;77.50
30983;DHT22;17660;52.578;13.288;2023-05-19T03:13:52;12.20;77.50
30983;DHT22;17660;52.578;13.288;2023-05-19T03:16:18;12.20;77.90
30983;DHT22;17660;52.578;13.288;2023-05-19T03:18:45;12.20;77.70
30983;DHT22;17660;52.578;13.288;2023-05-19T03:21:12;12.20;78.20
30983;DHT22;17660;52.578;13.288;2023-05-19T03:23:38;12.10;78.40
30983;DHT22;17660;52.578;13.288;2023-05-19T03:26:05;12.10;78.30
30983;DHT22;17660;52.578;13.288;2023-05-19T03:28:32;12.10;78.40
30983;DHT22;17660;52.578;13.288;2023-05-19T03:30:58;12.10;78.40
30983;DHT22;17660;52.578;13.288;2023-05-19T03:33:25;12.10;78.00
30983;DHT22;17660;52.578;13.288;2023-05-19T03:35:55;12.10;78.70
30983;DHT22;17660;52.578;13.288;2023-05-19T03:38:22;12.20;78.10
30983;DHT22;17660;52.578;13.288;2023-05-19T03:40:49;12.20;78.50
30983;DHT22;17660;52.578;13.288;2023-05-19T03:43:16;12.20;78.20
30983;DHT22;17660;52.578;13.288;2023-05-19T03:45:42;12.20;78.30
30983;DHT22;17660;52.578;13.288;2023-05-19T03:48:09;12.20;78.10
30983;DHT22;17660;52.578;13.288;2023-05-19T03:50:36;12.20;78.40
30983;DHT22;17660;52.578;13.288;2023-05-19T03:53:03;12.20;78.30
30983;DHT22;17660;52.578;13.288;2023-05-19T03:55:30;12.20;78.50
30983;DHT22;17660;52.578;13.288;2023-05-19T03:57:56;12.30;78.40
30983;DHT22;17660;52.578;13.288;2023-05-19T04:00:23;12.30;78.60
30983;DHT22;17660;52.578;13.288;2023-05-19T04:02:49;12.30;78.60
30983;DHT22;17660;52.578;13.288;2023-05-19T04:05:16;12.20;78.70
30983;DHT22;17660;52.578;13.288;2023-05-19T04:07:43;12.20;79.10
30983;DHT22;17660;52.578;13.288;2023-05-19T04:10:12;12.30;78.90
30983;DHT22;17660;52.578;13.288;2023-05-19T04:12:39;12.20;79.20
30983;DHT22;17660;52.578;13.288;2023-05-19T04:15:06;12.10;79.50
30983;DHT22;17660;52.578;13.288;2023-05-19T04:17:32;12.20;79.80
30983;DHT22;17660;52.578;13.288;2023-05-19T04:19:59;12.30;79.20
30983;DHT22;17660;52.578;13.288;2023-05-19T04:22:26;12.30;79.40
30983;DHT22;17660;52.578;13.288;2023-05-19T04:24:53;12.30;79.60
30983;DHT22;17660;52.578;13.288;2023-05-19T04:27:20;12.20;79.30
30983;DHT22;17660;52.578;13.288;2023-05-19T04:29:47;12.30;79.70
30983;DHT22;17660;52.578;13.288;2023-05-19T04:32:15;12.30;79.90
30983;DHT22;17660;52.578;13.288;2023-05-19T04:34:43;12.30;80.10
30983;DHT22;17660;52.578;13.288;2023-05-19T04:37:13;12.30;80.10
30983;DHT22;17660;52.578;13.288;2023-05-19T04:39:41;12.20;80.00
30983;DHT22;17660;52.578;13.288;2023-05-19T04:42:09;12.20;80.30
30983;DHT22;17660;52.578;13.288;2023-05-19T04:44:37;12.30;80.50
30983;DHT22;17660;52.578;13.288;2023-05-19T04:47:06;12.40;80.60
30983;DHT22;17660;52.578;13.288;2023-05-19T04:49:34;12.40;80.10
30983;DHT22;17660;52.578;13.288;2023-05-19T04:52:07;12.40;80.00
30983;DHT22;17660;52.578;13.288;2023-05-19T04:54:36;12.40;80.70
30983;DHT22;17660;52.578;13.288;2023-05-19T04:57:03;12.60;80.30
30983;DHT22;17660;52.578;13.288;2023-05-19T04:59:31;12.60;80.00
30983;DHT22;17660;52.578;13.288;2023-05-19T05:01:58;12.60;80.50
30983;DHT22;17660;52.578;13.288;2023-05-19T05:04:24;12.70;79.90
30983;DHT22;17660;52.578;13.288;2023-05-19T05:06:51;12.80;79.90
30983;DHT22;17660;52.578;13.288;2023-05-19T05:09:18;12.90;80.10
30983;DHT22;17660;52.578;13.288;2023-05-19T05:11:45;12.90;79.80
30983;DHT22;17660;52.578;13.288;2023-05-19T05:14:12;13.00;78.90
30983;DHT22;17660;52.578;13.288;2023-05-19T05:16:39;13.10;79.40
30983;DHT22;17660;52.578;13.288;2023-05-19T05:19:07;13.10;78.50
30983;DHT22;17660;52.578;13.288;2023-05-19T05:21:34;13.20;78.40
30983;DHT22;17660;52.578;13.288;2023-05-19T05:24:01;13.20;79.00
30983;DHT22;17660;52.578;13.288;2023-05-19T05:26:29;13.10;79.10
30983;DHT22;17660;52.578;13.288;2023-05-19T05:28:56;13.10;79.50
30983;DHT22;17660;52.578;13.288;2023-05-19T05:31:22;13.20;80.10
30983;DHT22;17660;52.578;13.288;2023-05-19T05:33:49;13.30;79.70
30983;DHT22;17660;52.578;13.288;2023-05-19T05:36:16;13.20;79.90
30983;DHT22;17660;52.578;13.288;2023-05-19T05:38:43;13.30;80.40
30983;DHT22;17660;52.578;13.288;2023-05-19T05:41:09;13.40;79.80
30983;DHT22;17660;52.578;13.288;2023-05-19T05:43:36;13.20;80.30
30983;DHT22;17660;52.578;13.288;2023-05-19T05:46:03;13.20;80.50
30983;DHT22;17660;52.578;13.288;2023-05-19T05:48:30;13.30;80.70
30983;DHT22;17660;52.578;13.288;2023-05-19T05:50:56;13.20;80.30
30983;DHT22;17660;52.578;13.288;2023-05-19T05:53:24;13.30;80.10
30983;DHT22;17660;52.578;13.288;2023-05-19T05:55:52;13.40;80.50
30983;DHT22;17660;52.578;13.288;2023-05-19T05:58:19;13.40;80.10
30983;DHT22;17660;52.578;13.288;2023-05-19T06:00:46;13.40;80.40
30983;DHT22;17660;52.578;13.288;2023-05-19T06:03:14;13.60;80.00
30983;DHT22;17660;52.578;13.288;2023-05-19T06:05:42;13.60;79.70
30983;DHT22;17660;52.578;13.288;2023-05-19T06:08:09;13.70;80.40
30983;DHT22;17660;52.578;13.288;2023-05-19T06:10:35;13.80;82.10
30983;DHT22;17660;52.578;13.288;2023-05-19T06:13:04;13.90;81.50
30983;DHT22;17660;52.578;13.288;2023-05-19T06:15:31;13.90;81.60
30983;DHT22;17660;52.578;13.288;2023-05-19T06:17:58;13.90;80.70
30983;DHT22;17660;52.578;13.288;2023-05-19T06:20:25;13.90;81.10
30983;DHT22;17660;52.578;13.288;2023-05-19T06:22:51;13.90;80.70
30983;DHT22;17660;52.578;13.288;2023-05-19T06:25:18;13.80;83.80
30983;DHT22;17660;52.578;13.288;2023-05-19T06:27:46;13.80;88.30
30983;DHT22;17660;52.578;13.288;2023-05-19T06:30:12;13.90;81.50
30983;DHT22;17660;52.578;13.288;2023-05-19T06:32:39;14.00;85.00
30983;DHT22;17660;52.578;13.288;2023-05-19T06:35:06;14.10;82.60
30983;DHT22;17660;52.578;13.288;2023-05-19T06:37:33;14.10;82.80
30983;DHT22;17660;52.578;13.288;2023-05-19T06:39:59;14.10;82.00
30983;DHT22;17660;52.578;13.288;2023-05-19T06:42:26;14.20;82.20
30983;DHT22;17660;52.578;13.288;2023-05-19T06:44:54;14.40;84.90
30983;DHT22;17660;52.578;13.288;2023-05-19T06:47:21;14.40;81.90
30983;DHT22;17660;52.578;13.288;2023-05-19T06:49:47;14.50;81.00
30983;DHT22;17660;52.578;13.288;2023-05-19T06:52:21;14.60;80.50
30983;DHT22;17660;52.578;13.288;2023-05-19T06:54:48;14.60;81.70
30983;DHT22;17660;52.578;13.288;2023-05-19T06:57:15;14.50;80.90
30983;DHT22;17660;52.578;13.288;2023-05-19T06:59:41;14.60;80.40
30983;DHT22;17660;52.578;13.288;2023-05-19T07:02:09;14.70;82.20
30983;DHT22;17660;52.578;13.288;2023-05-19T07:04:35;14.70;81.80
30983;DHT22;17660;52.578;13.288;2023-05-19T07:07:02;14.80;80.40
30983;DHT22;17660;52.578;13.288;2023-05-19T07:09:29;14.90;81.50
30983;DHT22;17660;52.578;13.288;2023-05-19T07:11:56;14.90;80.60
30983;DHT22;17660;52.578;13.288;2023-05-19T07:14:23;15.00;80.80
30983;DHT22;17660;52.578;13.288;2023-05-19T07:16:49;15.10;79.90
30983;DHT22;17660;52.578;13.288;2023-05-19T07:19:16;15.10;80.90
30983;DHT22;17660;52.578;13.288;2023-05-19T07:21:45;15.30;79.60
30983;DHT22;17660;52.578;13.288;2023-05-19T07:24:12;15.40;79.60
30983;DHT22;17660;52.578;13.288;2023-05-19T07:26:39;15.50;80.00
30983;DHT22;17660;52.578;13.288;2023-05-19T07:29:05;15.70;79.40
30983;DHT22;17660;52.578;13.288;2023-05-19T07:31:32;15.90;79.80
30983;DHT22;17660;52.578;13.288;2023-05-19T07:33:59;16.00;78.40
30983;DHT22;17660;52.578;13.288;2023-05-19T07:36:26;16.10;78.30
30983;DHT22;17660;52.578;13.288;2023-05-19T07:38:53;16.20;78.50
30983;DHT22;17660;52.578;13.288;2023-05-19T07:41:19;16.30;80.10
30983;DHT22;17660;52.578;13.288;2023-05-19T07:43:47;16.50;78.70
30983;DHT22;17660;52.578;13.288;2023-05-19T07:46:14;16.50;76.10
30983;DHT22;17660;52.578;13.288;2023-05-19T07:48:40;16.60;76.10
30983;DHT22;17660;52.578;13.288;2023-05-19T07:51:07;16.80;76.70
30983;DHT22;17660;52.578;13.288;2023-05-19T07:53:35;17.00;76.60
30983;DHT22;17660;52.578;13.288;2023-05-19T07:56:03;17.00;77.00
30983;DHT22;17660;52.578;13.288;2023-05-19T07:58:29;17.00;75.70
30983;DHT22;17660;52.578;13.288;2023-05-19T08:00:56;17.10;75.70
30983;DHT22;17660;52.578;13.288;2023-05-19T08:03:24;17.20;76.30
30983;DHT22;17660;52.578;13.288;2023-05-19T08:05:51;17.30;76.20
30983;DHT22;17660;52.578;13.288;2023-05-19T08:08:18;17.30;75.40
30983;DHT22;17660;52.578;13.288;2023-05-19T08:10:45;17.40;76.40
30983;DHT22;17660;52.578;13.288;2023-05-19T08:13:11;17.40;74.80
30983;DHT22;17660;52.578;13.288;2023-05-19T08:15:38;17.50;75.60
30983;DHT22;17660;52.578;13.288;2023-05-19T08:18:05;17.60;75.20
30983;DHT22;17660;52.578;13.288;2023-05-19T08:20:32;17.80;73.40
30983;DHT22;17660;52.578;13.288;2023-05-19T08:22:59;18.00;73.40
30983;DHT22;17660;52.578;13.288;2023-05-19T08:25:26;18.20;71.10
30983;DHT22;17660;52.578;13.288;2023-05-19T08:27:53;18.20;71.50
30983;DHT22;17660;52.578;13.288;2023-05-19T08:30:19;18.30;69.50
30983;DHT22;17660;52.578;13.288;2023-05-19T08:32:46;18.40;69.40
30983;DHT22;17660;52.578;13.288;2023-05-19T08:35:14;18.50;70.70
30983;DHT22;17660;52.578;13.288;2023-05-19T08:37:41;18.70;71.40
30983;DHT22;17660;52.578;13.288;2023-05-19T08:40:07;18.80;70.50
30983;DHT22;17660;52.578;13.288;2023-05-19T08:42:37;18.80;69.50
30983;DHT22;17660;52.578;13.288;2023-05-19T08:45:04;18.80;68.70
30983;DHT22;17660;52.578;13.288;2023-05-19T08:47:30;19.00;70.70
30983;DHT22;17660;52.578;13.288;2023-05-19T08:50:02;19.10;69.20
30983;DHT22;17660;52.578;13.288;2023-05-19T08:52:31;19.20;69.70
30983;DHT22;17660;52.578;13.288;2023-05-19T08:55:05;19.20;68.60
30983;DHT22;17660;52.578;13.288;2023-05-19T08:57:35;19.20;68.40
30983;DHT22;17660;52.578;13.288;2023-05-19T09:00:02;19.20;68.60
30983;DHT22;17660;52.578;13.288;2023-05-19T09:02:35;19.40;67.00
30983;DHT22;17660;52.578;13.288;2023-05-19T09:05:08;19.40;67.80
30983;DHT22;17660;52.578;13.288;2023-05-19T09:07:35;19.20;69.00
30983;DHT22;17660;52.578;13.288;2023-05-19T09:10:03;19.10;65.40
30983;DHT22;17660;52.578;13.288;2023-05-19T09:12:32;19.30;65.00
30983;DHT22;17660;52.578;13.288;2023-05-19T09:14:59;19.30;65.50
30983;DHT22;17660;52.578;13.288;2023-05-19T09:17:26;19.40;66.60
30983;DHT22;17660;52.578;13.288;2023-05-19T09:19:53;19.50;65.60
30983;DHT22;17660;52.578;13.288;2023-05-19T09:22:19;19.60;65.60
30983;DHT22;17660;52.578;13.288;2023-05-19T09:24:46;19.60;64.00
30983;DHT22;17660;52.578;13.288;2023-05-19T09:27:13;19.50;65.90
30983;DHT22;17660;52.578;13.288;2023-05-19T09:29:41;19.60;65.00
30983;DHT22;17660;52.578;13.288;2023-05-19T09:32:08;19.90;65.70
30983;DHT22;17660;52.578;13.288;2023-05-19T09:34:38;20.20;63.80
30983;DHT22;17660;52.578;13.288;2023-05-19T09:37:07;20.10;63.00
30983;DHT22;17660;52.578;13.288;2023-05-19T09:39:33;20.50;62.80
30983;DHT22;17660;52.578;13.288;2023-05-19T09:42:02;20.30;63.10
30983;DHT22;17660;52.578;13.288;2023-05-19T09:44:29;20.80;62.80
30983;DHT22;17660;52.578;13.288;2023-05-19T09:46:57;20.90;62.20
30983;DHT22;17660;52.578;13.288;2023-05-19T09:49:24;20.80;60.90
30983;DHT22;17660;52.578;13.288;2023-05-19T09:51:55;21.40;60.60
30983;DHT22;17660;52.578;13.288;2023-05-19T09:54:22;21.50;60.50
30983;DHT22;17660;52.578;13.288;2023-05-19T09:57:11;21.00;60.70
30983;DHT22;17660;52.578;13.288;2023-05-19T09:59:36;20.90;61.50
30983;DHT22;17660;52.578;13.288;2023-05-19T10:02:04;20.80;60.00
30983;DHT22;17660;52.578;13.288;2023-05-19T10:04:31;21.70;61.10
30983;DHT22;17660;52.578;13.288;2023-05-19T10:06:58;21.40;59.50
30983;DHT22;17660;52.578;13.288;2023-05-19T10:09:27;21.60;59.80
30983;DHT22;17660;52.578;13.288;2023-05-19T10:11:54;21.80;59.00
30983;DHT22;17660;52.578;13.288;2023-05-19T10:14:24;21.70;57.10
30983;DHT22;17660;52.578;13.288;2023-05-19T10:16:51;21.80;58.90
30983;DHT22;17660;52.578;13.288;2023-05-19T10:19:25;21.80;58.60
30983;DHT22;17660;52.578;13.288;2023-05-19T10:21:53;21.70;59.30
30983;DHT22;17660;52.578;13.288;2023-05-19T10:24:20;21.60;59.10
30983;DHT22;17660;52.578;13.288;2023-05-19T10:26:48;21.50;59.50
30983;DHT22;17660;52.578;13.288;2023-05-19T10:29:17;21.50;58.80
30983;DHT22;17660;52.578;13.288;2023-05-19T10:31:45;21.30;59.90
30983;DHT22;17660;52.578;13.288;2023-05-19T10:36:44;21.20;59.40
30983;DHT22;17660;52.578;13.288;2023-05-19T10:39:15;21.40;58.60
30983;DHT22;17660;52.578;13.288;2023-05-19T10:44:39;21.80;57.80
30983;DHT22;17660;52.578;13.288;2023-05-19T10:47:06;21.80;56.20
30983;DHT22;17660;52.578;13.288;2023-05-19T10:49:34;21.60;57.10
30983;DHT22;17660;52.578;13.288;2023-05-19T10:52:02;21.80;57.70
30983;DHT22;17660;52.578;13.288;2023-05-19T10:54:38;21.60;57.40
30983;DHT22;17660;52.578;13.288;2023-05-19T10:57:06;21.60;58.40
30983;DHT22;17660;52.578;13.288;2023-05-19T10:59:34;22.00;59.50
30983;DHT22;17660;52.578;13.288;2023-05-19T11:02:02;22.40;57.60
30983;DHT22;17660;52.578;13.288;2023-05-19T11:05:06;22.50;57.00
30983;DHT22;17660;52.578;13.288;2023-05-19T11:07:23;22.20;57.90
30983;DHT22;17660;52.578;13.288;2023-05-19T11:09:50;22.00;58.90
30983;DHT22;17660;52.578;13.288;2023-05-19T11:12:21;22.00;57.80
30983;DHT22;17660;52.578;13.288;2023-05-19T11:14:53;22.10;57.60
30983;DHT22;17660;52.578;13.288;2023-05-19T11:17:20;22.20;57.60
30983;DHT22;17660;52.578;13.288;2023-05-19T11:19:56;22.20;57.60
30983;DHT22;17660;52.578;13.288;2023-05-19T11:22:23;22.30;57.20
30983;DHT22;17660;52.578;13.288;2023-05-19T11:24:53;22.30;58.10
30983;DHT22;17660;52.578;13.288;2023-05-19T11:29:47;21.90;55.90
30983;DHT22;17660;52.578;13.288;2023-05-19T11:32:14;21.80;57.50
30983;DHT22;17660;52.578;13.288;2023-05-19T11:34:42;21.80;56.60
30983;DHT22;17660;52.578;13.288;2023-05-19T11:37:09;22.00;58.70
30983;DHT22;17660;52.578;13.288;2023-05-19T11:39:37;22.60;56.30
30983;DHT22;17660;52.578;13.288;2023-05-19T11:42:04;23.00;56.70
30983;DHT22;17660;52.578;13.288;2023-05-19T11:44:31;23.00;57.20
30983;DHT22;17660;52.578;13.288;2023-05-19T11:46:58;23.50;56.70
30983;DHT22;17660;52.578;13.288;2023-05-19T11:49:26;23.80;54.10
30983;DHT22;17660;52.578;13.288;2023-05-19T11:51:53;23.90;54.80
30983;DHT22;17660;52.578;13.288;2023-05-19T11:54:20;24.00;56.20
30983;DHT22;17660;52.578;13.288;2023-05-19T11:56:46;24.10;55.60
30983;DHT22;17660;52.578;13.288;2023-05-19T11:59:13;24.30;53.20
30983;DHT22;17660;52.578;13.288;2023-05-19T12:01:40;24.20;54.00
30983;DHT22;17660;52.578;13.288;2023-05-19T12:04:07;24.00;53.80
30983;DHT22;17660;52.578;13.288;2023-05-19T12:06:35;24.10;55.00
30983;DHT22;17660;52.578;13.288;2023-05-19T12:09:03;24.30;53.90
30983;DHT22;17660;52.578;13.288;2023-05-19T12:11:30;24.70;54.20
30983;DHT22;17660;52.578;13.288;2023-05-19T12:13:57;24.70;53.80
30983;DHT22;17660;52.578;13.288;2023-05-19T12:16:31;24.30;53.70
30983;DHT22;17660;52.578;13.288;2023-05-19T12:18:59;24.00;54.90
30983;DHT22;17660;52.578;13.288;2023-05-19T12:21:25;23.50;53.50
30983;DHT22;17660;52.578;13.288;2023-05-19T12:23:59;23.00;54.70
30983;DHT22;17660;52.578;13.288;2023-05-19T12:26:27;23.00;54.40
30983;DHT22;17660;52.578;13.288;2023-05-19T12:28:53;23.00;55.30
30983;DHT22;17660;52.578;13.288;2023-05-19T12:31:20;22.90;56.00
30983;DHT22;17660;52.578;13.288;2023-05-19T12:33:49;23.00;56.20
30983;DHT22;17660;52.578;13.288;2023-05-19T12:36:18;22.80;57.20
30983;DHT22;17660;52.578;13.288;2023-05-19T12:38:45;22.80;57.90
30983;DHT22;17660;52.578;13.288;2023-05-19T12:41:13;22.80;55.60
30983;DHT22;17660;52.578;13.288;2023-05-19T12:43:40;22.80;55.30
30983;DHT22;17660;52.578;13.288;2023-05-19T12:46:10;22.90;54.70
30983;DHT22;17660;52.578;13.288;2023-05-19T12:48:41;23.00;54.30
30983;DHT22;17660;52.578;13.288;2023-05-19T12:51:08;23.00;54.20
30983;DHT22;17660;52.578;13.288;2023-05-19T12:53:36;23.20;53.50
30983;DHT22;17660;52.578;13.288;2023-05-19T12:56:09;23.20;53.60
30983;DHT22;17660;52.578;13.288;2023-05-19T12:58:36;22.90;54.40
30983;DHT22;17660;52.578;13.288;2023-05-19T13:01:05;22.60;55.10
30983;DHT22;17660;52.578;13.288;2023-05-19T13:03:32;22.30;55.40
30983;DHT22;17660;52.578;13.288;2023-05-19T13:05:58;22.40;55.60
30983;DHT22;17660;52.578;13.288;2023-05-19T13:08:25;22.30;55.90
30983;DHT22;17660;52.578;13.288;2023-05-19T13:10:53;22.30;57.20
30983;DHT22;17660;52.578;13.288;2023-05-19T13:13:20;22.40;55.50
30983;DHT22;17660;52.578;13.288;2023-05-19T13:15:47;22.40;56.60
30983;DHT22;17660;52.578;13.288;2023-05-19T13:18:14;22.20;56.50
30983;DHT22;17660;52.578;13.288;2023-05-19T13:20:42;22.20;57.00
30983;DHT22;17660;52.578;13.288;2023-05-19T13:23:10;22.20;56.80
30983;DHT22;17660;52.578;13.288;2023-05-19T13:25:37;22.00;56.90
30983;DHT22;17660;52.578;13.288;2023-05-19T13:28:03;21.90;57.20
30983;DHT22;17660;52.578;13.288;2023-05-19T13:30:32;21.80;56.50
30983;DHT22;17660;52.578;13.288;2023-05-19T13:32:59;21.70;57.30
30983;DHT22;17660;52.578;13.288;2023-05-19T13:35:26;22.00;57.50
30983;DHT22;17660;52.578;13.288;2023-05-19T13:37:53;21.90;57.00
30983;DHT22;17660;52.578;13.288;2023-05-19T13:40:20;21.90;56.40
30983;DHT22;17660;52.578;13.288;2023-05-19T13:42:49;21.80;56.10
30983;DHT22;17660;52.578;13.288;2023-05-19T13:45:15;21.60;56.70
30983;DHT22;17660;52.578;13.288;2023-05-19T13:47:43;21.40;56.40
30983;DHT22;17660;52.578;13.288;2023-05-19T13:50:10;21.30;57.20
30983;DHT22;17660;52.578;13.288;2023-05-19T13:52:37;21.50;58.30
30983;DHT22;17660;52.578;13.288;2023-05-19T13:55:05;21.50;57.40
30983;DHT22;17660;52.578;13.288;2023-05-19T13:57:32;21.30;57.50
30983;DHT22;17660;52.578;13.288;2023-05-19T13:59:58;21.20;57.60
30983;DHT22;17660;52.578;13.288;2023-05-19T14:02:29;21.00;57.90
30983;DHT22;17660;52.578;13.288;2023-05-19T14:04:56;20.90;58.30
30983;DHT22;17660;52.578;13.288;2023-05-19T14:07:23;20.90;58.50
30983;DHT22;17660;52.578;13.288;2023-05-19T14:09:50;20.80;59.20
30983;DHT22;17660;52.578;13.288;2023-05-19T14:12:17;20.80;59.30
30983;DHT22;17660;52.578;13.288;2023-05-19T14:14:45;20.90;59.10
30983;DHT22;17660;52.578;13.288;2023-05-19T14:17:14;20.90;59.60
30983;DHT22;17660;52.578;13.288;2023-05-19T14:19:41;20.90;59.10
30983;DHT22;17660;52.578;13.288;2023-05-19T14:22:07;21.10;59.20
30983;DHT22;17660;52.578;13.288;2023-05-19T14:24:34;21.20;59.30
30983;DHT22;17660;52.578;13.288;2023-05-19T14:27:01;21.20;58.50
30983;DHT22;17660;52.578;13.288;2023-05-19T14:29:27;21.20;58.90
30983;DHT22;17660;52.578;13.288;2023-05-19T14:31:56;21.10;58.80
30983;DHT22;17660;52.578;13.288;2023-05-19T14:34:23;21.00;58.90
30983;DHT22;17660;52.578;13.288;2023-05-19T14:36:50;20.80;58.20
30983;DHT22;17660;52.578;13.288;2023-05-19T14:39:16;20.70;59.50
30983;DHT22;17660;52.578;13.288;2023-05-19T14:41:43;20.70;60.00
30983;DHT22;17660;52.578;13.288;2023-05-19T14:44:10;20.60;60.70
30983;DHT22;17660;52.578;13.288;2023-05-19T14:46:36;20.60;60.20
30983;DHT22;17660;52.578;13.288;2023-05-19T14:49:03;20.70;61.20
30983;DHT22;17660;52.578;13.288;2023-05-19T14:51:31;20.80;60.70
30983;DHT22;17660;52.578;13.288;2023-05-19T14:53:58;20.80;60.00
30983;DHT22;17660;52.578;13.288;2023-05-19T14:56:25;20.90;60.10
30983;DHT22;17660;52.578;13.288;2023-05-19T14:58:52;21.20;59.60
30983;DHT22;17660;52.578;13.288;2023-05-19T15:01:19;21.30;58.90
30983;DHT22;17660;52.578;13.288;2023-05-19T15:03:46;21.30;58.30
30983;DHT22;17660;52.578;13.288;2023-05-19T15:06:12;21.50;60.80
30983;DHT22;17660;52.578;13.288;2023-05-19T15:08:39;21.90;60.50
30983;DHT22;17660;52.578;13.288;2023-05-19T15:11:06;22.10;58.00
30983;DHT22;17660;52.578;13.288;2023-05-19T15:13:33;22.20;57.60
30983;DHT22;17660;52.578;13.288;2023-05-19T15:16:00;22.30;57.00
30983;DHT22;17660;52.578;13.288;2023-05-19T15:18:42;22.40;58.10
30983;DHT22;17660;52.578;13.288;2023-05-19T15:21:09;22.30;56.60
30983;DHT22;17660;52.578;13.288;2023-05-19T15:23:36;22.10;56.80
30983;DHT22;17660;52.578;13.288;2023-05-19T15:26:02;22.00;57.80
30983;DHT22;17660;52.578;13.288;2023-05-19T15:28:29;22.60;57.00
30983;DHT22;17660;52.578;13.288;2023-05-19T15:30:56;23.60;54.70
30983;DHT22;17660;52.578;13.288;2023-05-19T15:33:23;24.60;54.50
30983;DHT22;17660;52.578;13.288;2023-05-19T15:35:49;24.20;53.90
30983;DHT22;17660;52.578;13.288;2023-05-19T15:38:20;23.60;53.30
30983;DHT22;17660;52.578;13.288;2023-05-19T15:40:47;23.10;54.30
30983;DHT22;17660;52.578;13.288;2023-05-19T15:43:13;22.90;56.00
30983;DHT22;17660;52.578;13.288;2023-05-19T15:45:40;22.90;56.00
30983;DHT22;17660;52.578;13.288;2023-05-19T15:48:07;22.70;56.10